createdAt,value
2017-10-01T00:00:12.407Z,992.88
2017-10-01T00:01:13.557Z,992.99
2017-10-01T00:02:13.512Z,992.96
2017-10-01T00:03:13.664Z,992.94
2017-10-01T00:04:13.535Z,993.01
2017-10-01T00:05:13.618Z,992.90
2017-10-01T00:06:13.664Z,992.97
2017-10-01T00:07:13.113Z,992.90
2017-10-01T00:08:12.950Z,992.94
2017-10-01T00:09:13.015Z,992.93
2017-10-01T00:10:13.182Z,992.95
2017-10-01T00:11:13.143Z,992.98
2017-10-01T00:12:12.377Z,992.99
2017-10-01T00:13:12.418Z,992.99
2017-10-01T00:14:12.285Z,993.00
2017-10-01T00:15:13.046Z,993.04
2017-10-01T00:16:12.983Z,992.98
2017-10-01T00:17:13.658Z,992.98
2017-10-01T00:18:13.595Z,992.99
2017-10-01T00:19:13.150Z,993.08
2017-10-01T00:20:13.597Z,993.02
2017-10-01T00:21:13.652Z,993.07
2017-10-01T00:22:13.192Z,993.10
2017-10-01T00:23:13.646Z,993.07
2017-10-01T00:24:13.110Z,993.06
2017-10-01T00:25:13.046Z,993.01
2017-10-01T00:26:13.083Z,993.04
2017-10-01T00:27:12.417Z,993.03
2017-10-01T00:28:12.342Z,993.00
2017-10-01T00:29:12.496Z,993.00
2017-10-01T00:30:12.462Z,993.12
2017-10-01T00:31:12.502Z,993.05
2017-10-01T00:32:12.341Z,992.95
2017-10-01T00:33:13.582Z,993.03
2017-10-01T00:34:13.119Z,993.14
2017-10-01T00:35:13.854Z,993.11
2017-10-01T00:36:13.698Z,993.07
2017-10-01T00:37:13.732Z,993.14
2017-10-01T00:38:13.771Z,993.14
2017-10-01T00:39:13.711Z,993.06
2017-10-01T00:40:13.778Z,993.18
2017-10-01T00:41:13.822Z,993.17
2017-10-01T00:42:12.349Z,993.12
2017-10-01T00:43:13.596Z,993.21
2017-10-01T00:44:12.427Z,993.16
2017-10-01T00:45:12.468Z,993.14
2017-10-01T00:46:12.509Z,993.16
2017-10-01T00:47:12.544Z,993.22
2017-10-01T00:48:12.478Z,993.17
2017-10-01T00:49:12.439Z,993.16
2017-10-01T00:50:13.203Z,993.26
2017-10-01T00:51:13.745Z,993.23
2017-10-01T00:52:13.674Z,993.30
2017-10-01T00:53:13.515Z,993.18
2017-10-01T00:54:13.647Z,993.30
2017-10-01T00:55:13.782Z,993.42
2017-10-01T00:56:13.532Z,993.39
2017-10-01T00:57:13.155Z,993.38
2017-10-01T00:58:13.281Z,993.30
2017-10-01T00:59:13.220Z,993.33
2017-10-01T01:02:32.115Z,993.29
2017-10-01T01:02:32.937Z,993.33
2017-10-01T01:02:33.852Z,993.29
2017-10-01T01:03:12.535Z,993.42
2017-10-01T01:06:00.973Z,993.35
2017-10-01T01:06:01.780Z,993.49
2017-10-01T01:09:08.256Z,993.47
2017-10-01T01:09:09.073Z,993.48
2017-10-01T01:09:09.794Z,993.45
2017-10-01T01:11:49.635Z,993.47
2017-10-01T01:11:50.447Z,993.48
2017-10-01T01:11:51.361Z,993.45
2017-10-01T01:14:32.460Z,993.52
2017-10-01T01:14:33.574Z,993.43
2017-10-01T01:14:34.687Z,993.52
2017-10-01T01:15:12.570Z,993.43
2017-10-01T01:17:54.422Z,993.51
2017-10-01T01:17:55.534Z,993.41
2017-10-01T01:20:34.364Z,993.42
2017-10-01T01:20:35.184Z,993.49
2017-10-01T01:20:36.092Z,993.50
2017-10-01T01:24:00.048Z,993.54
2017-10-01T01:24:00.863Z,993.51
2017-10-01T01:24:01.572Z,993.53
2017-10-01T01:26:33.411Z,993.47
2017-10-01T01:26:34.226Z,993.49
2017-10-01T01:26:35.031Z,993.48
2017-10-01T01:30:00.941Z,993.52
2017-10-01T01:30:01.758Z,993.54
2017-10-01T01:30:02.592Z,993.49
2017-10-01T01:32:32.023Z,993.61
2017-10-01T01:32:32.835Z,993.57
2017-10-01T01:32:33.754Z,993.59
2017-10-01T01:33:12.637Z,993.61
2017-10-01T01:36:00.983Z,993.54
2017-10-01T01:36:01.897Z,993.59
2017-10-01T01:39:08.580Z,993.56
2017-10-01T01:39:09.513Z,993.58
2017-10-01T01:39:10.620Z,993.58
2017-10-01T01:42:01.593Z,993.55
2017-10-01T01:42:02.400Z,993.59
2017-10-01T01:42:03.212Z,993.58
2017-10-01T01:44:32.864Z,993.59
2017-10-01T01:44:33.676Z,993.60
2017-10-01T01:44:34.285Z,993.60
2017-10-01T01:45:12.583Z,993.67
2017-10-01T01:51:08.942Z,993.67
2017-10-01T01:51:09.760Z,993.69
2017-10-01T01:51:10.671Z,993.59
2017-10-01T01:51:11.683Z,993.62
2017-10-01T01:51:12.493Z,993.62
2017-10-01T01:51:13.333Z,993.66
2017-10-01T01:53:44.917Z,993.71
2017-10-01T01:53:45.832Z,993.66
2017-10-01T01:53:46.652Z,993.70
2017-10-01T02:01:43.374Z,993.71
2017-10-01T02:01:44.181Z,993.76
2017-10-01T02:01:44.994Z,993.81
2017-10-01T02:01:46.110Z,993.79
2017-10-01T02:01:46.929Z,993.83
2017-10-01T02:02:39.646Z,993.82
2017-10-01T02:03:40.986Z,993.87
2017-10-01T02:04:40.416Z,993.88
2017-10-01T02:05:40.351Z,993.92
2017-10-01T02:06:40.392Z,993.98
2017-10-01T02:07:40.325Z,993.92
2017-10-01T02:08:39.655Z,993.96
2017-10-01T02:09:39.703Z,993.95
2017-10-01T02:10:39.737Z,994.02
2017-10-01T02:11:39.785Z,994.04
2017-10-01T02:12:39.720Z,993.99
2017-10-01T02:13:39.654Z,994.04
2017-10-01T02:14:40.808Z,994.03
2017-10-01T02:15:40.342Z,994.03
2017-10-01T02:16:41.296Z,994.06
2017-10-01T02:17:40.952Z,994.04
2017-10-01T02:18:40.500Z,993.95
2017-10-01T02:19:40.941Z,994.01
2017-10-01T02:20:40.992Z,994.02
2017-10-01T02:21:40.428Z,994.10
2017-10-01T02:22:39.648Z,994.00
2017-10-01T02:23:39.688Z,994.03
2017-10-01T02:24:40.531Z,994.09
2017-10-01T02:25:39.764Z,994.10
2017-10-01T02:26:39.900Z,994.06
2017-10-01T02:27:39.752Z,994.11
2017-10-01T02:28:39.693Z,994.14
2017-10-01T02:29:39.830Z,994.11
2017-10-01T02:30:39.749Z,994.09
2017-10-01T02:31:40.512Z,994.07
2017-10-01T02:32:40.338Z,994.14
2017-10-01T02:33:40.455Z,994.17
2017-10-01T02:34:41.007Z,994.13
2017-10-01T02:35:40.955Z,994.23
2017-10-01T02:36:41.024Z,994.19
2017-10-01T02:37:41.066Z,994.25
2017-10-01T02:38:40.390Z,994.29
2017-10-01T02:39:39.734Z,994.26
2017-10-01T02:40:39.790Z,994.25
2017-10-01T02:41:39.824Z,994.26
2017-10-01T02:42:39.780Z,994.24
2017-10-01T02:43:39.932Z,994.21
2017-10-01T02:44:39.755Z,994.22
2017-10-01T02:45:39.789Z,994.25
2017-10-01T02:46:39.832Z,994.25
2017-10-01T02:47:39.993Z,994.23
2017-10-01T02:48:39.845Z,994.24
2017-10-01T02:49:40.498Z,994.28
2017-10-01T02:50:40.863Z,994.31
2017-10-01T02:51:40.635Z,994.31
2017-10-01T02:52:40.564Z,994.36
2017-10-01T02:53:40.912Z,994.33
2017-10-01T02:54:41.234Z,994.37
2017-10-01T02:55:41.187Z,994.33
2017-10-01T02:56:40.517Z,994.39
2017-10-01T02:57:40.559Z,994.45
2017-10-01T02:58:39.889Z,994.44
2017-10-01T02:59:39.934Z,994.40
2017-10-01T03:00:39.988Z,994.47
2017-10-01T03:01:40.027Z,994.42
2017-10-01T03:02:39.856Z,994.38
2017-10-01T03:03:40.006Z,994.46
2017-10-01T03:04:39.935Z,994.49
2017-10-01T03:05:39.886Z,994.54
2017-10-01T03:06:40.732Z,994.49
2017-10-01T03:07:40.783Z,994.54
2017-10-01T03:08:41.101Z,994.53
2017-10-01T03:09:40.445Z,994.48
2017-10-01T03:10:40.604Z,994.56
2017-10-01T03:11:41.249Z,994.54
2017-10-01T03:12:40.573Z,994.60
2017-10-01T03:13:40.607Z,994.65
2017-10-01T03:14:40.643Z,994.71
2017-10-01T03:15:39.961Z,994.53
2017-10-01T03:16:39.942Z,994.60
2017-10-01T03:17:39.954Z,994.60
2017-10-01T03:18:39.988Z,994.57
2017-10-01T03:19:39.965Z,994.58
2017-10-01T03:20:40.598Z,994.63
2017-10-01T03:21:41.113Z,994.65
2017-10-01T03:22:41.375Z,994.63
2017-10-01T03:23:41.213Z,994.67
2017-10-01T03:24:41.311Z,994.71
2017-10-01T03:25:41.340Z,994.61
2017-10-01T03:26:41.274Z,994.68
2017-10-01T03:27:41.235Z,994.64
2017-10-01T03:28:40.650Z,994.71
2017-10-01T03:29:40.687Z,994.80
2017-10-01T03:30:40.639Z,994.76
2017-10-01T03:31:40.967Z,994.77
2017-10-01T03:32:44.930Z,994.76
2017-10-01T03:33:41.917Z,994.76
2017-10-01T03:35:12.256Z,994.78
2017-10-01T03:35:12.864Z,994.79
2017-10-01T03:35:40.126Z,994.81
2017-10-01T03:36:40.652Z,994.82
2017-10-01T03:37:41.199Z,994.82
2017-10-01T03:38:40.817Z,994.76
2017-10-01T03:39:40.756Z,994.86
2017-10-01T03:40:41.305Z,994.87
2017-10-01T03:41:41.325Z,994.90
2017-10-01T03:42:41.351Z,994.89
2017-10-01T03:43:41.301Z,994.96
2017-10-01T03:44:40.819Z,994.89
2017-10-01T03:45:40.641Z,994.98
2017-10-01T03:46:40.660Z,994.96
2017-10-01T03:47:40.693Z,994.96
2017-10-01T03:48:40.111Z,995.01
2017-10-01T03:49:40.140Z,994.98
2017-10-01T03:50:40.074Z,994.98
2017-10-01T03:51:40.299Z,994.98
2017-10-01T03:52:40.152Z,995.00
2017-10-01T03:53:40.084Z,995.00
2017-10-01T03:54:41.316Z,995.00
2017-10-01T03:55:41.442Z,995.02
2017-10-01T03:56:41.366Z,995.00
2017-10-01T03:57:41.494Z,994.99
2017-10-01T03:58:41.105Z,995.04
2017-10-01T03:59:41.533Z,995.09
2017-10-01T04:00:40.976Z,995.05
2017-10-01T04:01:40.891Z,995.03
2017-10-01T04:02:40.711Z,995.03
2017-10-01T04:03:40.032Z,995.07
2017-10-01T04:04:40.050Z,995.07
2017-10-01T04:05:40.082Z,995.09
2017-10-01T04:06:40.103Z,995.13
2017-10-01T04:07:40.127Z,995.16
2017-10-01T04:08:40.055Z,995.11
2017-10-01T04:09:40.870Z,995.20
2017-10-01T04:10:40.794Z,995.19
2017-10-01T04:11:40.923Z,995.14
2017-10-01T04:12:41.471Z,995.19
2017-10-01T04:13:41.421Z,995.23
2017-10-01T04:14:41.471Z,995.22
2017-10-01T04:15:41.522Z,995.22
2017-10-01T04:16:41.462Z,995.19
2017-10-01T04:17:41.406Z,995.28
2017-10-01T04:18:40.741Z,995.23
2017-10-01T04:19:40.882Z,995.36
2017-10-01T04:20:40.128Z,995.18
2017-10-01T04:21:40.924Z,995.25
2017-10-01T04:22:40.167Z,995.28
2017-10-01T04:23:40.118Z,995.33
2017-10-01T04:24:40.285Z,995.29
2017-10-01T04:25:40.249Z,995.31
2017-10-01T04:26:40.279Z,995.29
2017-10-01T04:27:40.215Z,995.30
2017-10-01T04:28:41.365Z,995.37
2017-10-01T04:29:41.542Z,995.35
2017-10-01T04:30:41.497Z,995.27
2017-10-01T04:31:41.458Z,995.31
2017-10-01T04:32:41.511Z,995.28
2017-10-01T04:33:41.449Z,995.30
2017-10-01T04:34:40.789Z,995.31
2017-10-01T04:35:41.280Z,995.32
2017-10-01T04:36:40.896Z,995.30
2017-10-01T04:37:40.941Z,995.39
2017-10-01T04:38:40.281Z,995.39
2017-10-01T04:39:40.313Z,995.41
2017-10-01T04:40:40.257Z,995.38
2017-10-01T04:41:40.398Z,995.34
2017-10-01T04:42:40.342Z,995.39
2017-10-01T04:43:40.287Z,995.39
2017-10-01T04:44:41.454Z,995.43
2017-10-01T04:45:41.422Z,995.29
2017-10-01T04:46:41.478Z,995.40
2017-10-01T04:47:41.440Z,995.43
2017-10-01T04:48:41.586Z,995.39
2017-10-01T04:49:41.542Z,995.49
2017-10-01T04:50:41.718Z,995.47
2017-10-01T04:51:40.867Z,995.35
2017-10-01T04:52:41.014Z,995.48
2017-10-01T04:53:41.002Z,995.42
2017-10-01T04:54:40.947Z,995.46
2017-10-01T04:55:40.297Z,995.42
2017-10-01T04:56:40.242Z,995.47
2017-10-01T04:57:40.387Z,995.42
2017-10-01T04:58:40.414Z,995.40
2017-10-01T04:59:40.359Z,995.51
2017-10-01T05:00:40.269Z,995.46
2017-10-01T05:01:41.022Z,995.51
2017-10-01T05:02:41.580Z,995.50
2017-10-01T05:03:41.526Z,995.39
2017-10-01T05:04:41.572Z,995.51
2017-10-01T05:05:41.516Z,995.55
2017-10-01T05:06:41.661Z,995.49
2017-10-01T05:07:40.894Z,995.58
2017-10-01T05:08:40.872Z,995.55
2017-10-01T05:09:40.940Z,995.54
2017-10-01T05:10:40.323Z,995.56
2017-10-01T05:11:40.392Z,995.53
2017-10-01T05:12:40.335Z,995.58
2017-10-01T05:13:40.380Z,995.57
2017-10-01T05:14:40.431Z,995.64
2017-10-01T05:15:40.415Z,995.68
2017-10-01T05:16:40.369Z,995.70
2017-10-01T05:17:41.016Z,995.64
2017-10-01T05:18:41.067Z,995.65
2017-10-01T05:19:41.634Z,995.69
2017-10-01T05:20:41.651Z,995.64
2017-10-01T05:21:41.612Z,995.67
2017-10-01T05:22:41.675Z,995.67
2017-10-01T05:23:41.636Z,995.71
2017-10-01T05:24:41.082Z,995.73
2017-10-01T05:25:41.046Z,995.76
2017-10-01T05:26:40.987Z,995.73
2017-10-01T05:27:41.048Z,995.75
2017-10-01T05:28:40.469Z,995.84
2017-10-01T05:29:40.431Z,995.78
2017-10-01T05:30:40.360Z,995.76
2017-10-01T05:31:40.544Z,995.77
2017-10-01T05:32:40.394Z,995.87
2017-10-01T05:33:40.405Z,995.74
2017-10-01T05:34:41.642Z,995.79
2017-10-01T05:35:41.613Z,995.84
2017-10-01T05:36:41.751Z,995.80
2017-10-01T05:37:41.598Z,995.81
2017-10-01T05:38:41.649Z,995.74
2017-10-01T05:39:41.742Z,995.84
2017-10-01T05:40:41.718Z,995.92
2017-10-01T05:41:41.051Z,995.85
2017-10-01T05:42:41.056Z,995.89
2017-10-01T05:43:40.398Z,995.87
2017-10-01T05:44:41.295Z,995.90
2017-10-01T05:45:40.452Z,995.91
2017-10-01T05:46:40.448Z,995.89
2017-10-01T05:47:40.599Z,995.91
2017-10-01T05:48:40.443Z,995.95
2017-10-01T05:49:40.589Z,995.99
2017-10-01T05:50:40.629Z,995.88
2017-10-01T05:51:40.461Z,995.97
2017-10-01T05:52:41.217Z,995.98
2017-10-01T05:53:41.786Z,996.03
2017-10-01T05:54:41.831Z,995.95
2017-10-01T05:55:41.680Z,995.97
2017-10-01T05:56:41.928Z,996.01
2017-10-01T05:57:41.075Z,996.05
2017-10-01T05:58:41.107Z,996.00
2017-10-01T05:59:41.146Z,996.01
2017-10-01T06:00:41.702Z,996.08
2017-10-01T06:01:41.239Z,996.06
2017-10-01T06:02:40.560Z,996.10
2017-10-01T06:03:40.686Z,996.12
2017-10-01T06:04:40.523Z,996.15
2017-10-01T06:05:40.558Z,996.19
2017-10-01T06:06:40.591Z,996.16
2017-10-01T06:07:40.616Z,996.18
2017-10-01T06:08:41.755Z,996.20
2017-10-01T06:09:42.095Z,996.21
2017-10-01T06:10:41.843Z,996.17
2017-10-01T06:11:42.104Z,996.20
2017-10-01T06:12:41.849Z,996.18
2017-10-01T06:13:41.204Z,996.21
2017-10-01T06:14:41.939Z,996.27
2017-10-01T06:15:41.183Z,996.22
2017-10-01T06:16:40.425Z,996.18
2017-10-01T06:17:40.572Z,996.21
2017-10-01T06:18:40.432Z,996.21
2017-10-01T06:19:40.580Z,996.27
2017-10-01T06:20:40.545Z,996.21
2017-10-01T06:21:40.713Z,996.23
2017-10-01T06:22:40.696Z,996.19
2017-10-01T06:23:40.637Z,996.25
2017-10-01T06:24:40.576Z,996.30
2017-10-01T06:25:41.925Z,996.35
2017-10-01T06:26:41.485Z,996.28
2017-10-01T06:27:41.937Z,996.24
2017-10-01T06:28:41.779Z,996.30
2017-10-01T06:29:41.233Z,996.30
2017-10-01T06:30:42.171Z,996.26
2017-10-01T06:31:41.199Z,996.30
2017-10-01T06:32:41.341Z,996.28
2017-10-01T06:33:40.579Z,996.35
2017-10-01T06:34:40.610Z,996.36
2017-10-01T06:35:40.653Z,996.32
2017-10-01T06:36:40.707Z,996.28
2017-10-01T06:37:40.637Z,996.30
2017-10-01T06:38:40.685Z,996.32
2017-10-01T06:39:40.506Z,996.37
2017-10-01T06:40:41.248Z,996.32
2017-10-01T06:41:41.900Z,996.37
2017-10-01T06:42:41.926Z,996.37
2017-10-01T06:43:41.874Z,996.35
2017-10-01T06:44:42.000Z,996.41
2017-10-01T06:45:42.043Z,996.43
2017-10-01T06:46:41.885Z,996.50
2017-10-01T06:47:42.025Z,996.48
2017-10-01T06:48:41.245Z,996.46
2017-10-01T06:49:41.374Z,996.51
2017-10-01T06:50:41.313Z,996.47
2017-10-01T06:51:40.637Z,996.54
2017-10-01T06:52:40.776Z,996.49
2017-10-01T06:53:40.710Z,996.55
2017-10-01T06:54:40.646Z,996.60
2017-10-01T06:55:40.673Z,996.61
2017-10-01T06:56:41.397Z,996.61
2017-10-01T06:57:41.317Z,996.61
2017-10-01T06:58:42.058Z,996.56
2017-10-01T06:59:41.493Z,996.64
2017-10-01T07:00:42.058Z,996.65
2017-10-01T07:01:41.995Z,996.65
2017-10-01T07:02:41.727Z,996.67
2017-10-01T07:03:41.969Z,996.75
2017-10-01T07:04:41.388Z,996.77
2017-10-01T07:05:41.420Z,996.72
2017-10-01T07:06:40.641Z,996.78
2017-10-01T07:07:41.385Z,996.69
2017-10-01T07:08:40.713Z,996.75
2017-10-01T07:09:40.753Z,996.76
2017-10-01T07:10:40.898Z,996.80
2017-10-01T07:11:40.850Z,996.84
2017-10-01T07:12:40.692Z,996.74
2017-10-01T07:13:41.637Z,996.78
2017-10-01T07:14:42.074Z,996.90
2017-10-01T07:15:41.620Z,996.97
2017-10-01T07:16:41.959Z,996.85
2017-10-01T07:17:42.098Z,996.95
2017-10-01T07:18:41.931Z,996.88
2017-10-01T07:19:41.957Z,996.92
2017-10-01T07:20:41.345Z,996.97
2017-10-01T07:21:42.399Z,996.94
2017-10-01T07:22:41.847Z,996.94
2017-10-01T07:23:41.397Z,996.86
2017-10-01T07:24:41.448Z,996.96
2017-10-01T07:25:40.885Z,996.94
2017-10-01T07:26:40.833Z,996.89
2017-10-01T07:27:40.791Z,996.95
2017-10-01T07:28:40.726Z,996.99
2017-10-01T07:29:41.754Z,996.98
2017-10-01T07:30:42.202Z,996.97
2017-10-01T07:31:41.945Z,997.03
2017-10-01T07:32:41.696Z,997.04
2017-10-01T07:33:42.367Z,997.07
2017-10-01T07:34:42.081Z,997.12
2017-10-01T07:35:42.221Z,997.11
2017-10-01T07:36:41.652Z,997.05
2017-10-01T07:37:42.191Z,997.16
2017-10-01T07:38:42.230Z,997.16
2017-10-01T07:39:42.181Z,997.21
2017-10-01T07:40:41.451Z,997.22
2017-10-01T07:41:40.860Z,997.18
2017-10-01T07:42:41.909Z,997.18
2017-10-01T07:43:40.759Z,997.18
2017-10-01T07:44:40.910Z,997.24
2017-10-01T07:45:40.949Z,997.26
2017-10-01T07:46:40.900Z,997.31
2017-10-01T07:47:40.925Z,997.17
2017-10-01T07:48:42.173Z,997.25
2017-10-01T07:49:42.106Z,997.23
2017-10-01T07:50:42.043Z,997.26
2017-10-01T07:51:42.074Z,997.22
2017-10-01T07:52:42.304Z,997.32
2017-10-01T07:53:42.043Z,997.29
2017-10-01T07:54:41.470Z,997.28
2017-10-01T07:55:41.511Z,997.34
2017-10-01T07:56:41.535Z,997.24
2017-10-01T07:57:41.683Z,997.24
2017-10-01T07:58:40.901Z,997.30
2017-10-01T07:59:40.833Z,997.25
2017-10-01T08:00:40.901Z,997.29
2017-10-01T08:01:40.831Z,997.33
2017-10-01T08:02:40.958Z,997.31
2017-10-01T08:03:40.886Z,997.39
2017-10-01T08:04:41.919Z,997.30
2017-10-01T08:05:41.858Z,997.30
2017-10-01T08:06:42.089Z,997.20
2017-10-01T08:07:42.153Z,997.27
2017-10-01T08:08:42.080Z,997.29
2017-10-01T08:09:42.216Z,997.29
2017-10-01T08:10:41.743Z,997.27
2017-10-01T08:11:41.791Z,997.26
2017-10-01T08:12:42.317Z,997.26
2017-10-01T08:13:41.545Z,997.28
2017-10-01T08:14:42.109Z,997.24
2017-10-01T08:15:40.902Z,997.21
2017-10-01T08:16:40.947Z,997.24
2017-10-01T08:17:40.892Z,997.21
2017-10-01T08:18:40.923Z,997.24
2017-10-01T08:19:40.961Z,997.22
2017-10-01T08:20:41.005Z,997.22
2017-10-01T08:21:40.936Z,997.22
2017-10-01T08:22:42.208Z,997.27
2017-10-01T08:23:42.359Z,997.31
2017-10-01T08:24:41.799Z,997.33
2017-10-01T08:25:42.243Z,997.36
2017-10-01T08:26:42.313Z,997.36
2017-10-01T08:27:42.231Z,997.35
2017-10-01T08:28:42.344Z,997.33
2017-10-01T08:29:41.692Z,997.34
2017-10-01T08:30:41.755Z,997.33
2017-10-01T08:31:41.633Z,997.36
2017-10-01T08:32:41.004Z,997.35
2017-10-01T08:33:41.952Z,997.40
2017-10-01T08:34:41.004Z,997.38
2017-10-01T08:35:42.072Z,997.42
2017-10-01T08:36:41.004Z,997.39
2017-10-01T08:37:41.156Z,997.38
2017-10-01T08:38:41.039Z,997.38
2017-10-01T08:39:42.287Z,997.36
2017-10-01T08:40:42.255Z,997.49
2017-10-01T08:41:42.196Z,997.42
2017-10-01T08:42:41.934Z,997.45
2017-10-01T08:43:42.066Z,997.45
2017-10-01T08:44:42.341Z,997.45
2017-10-01T08:45:41.693Z,997.46
2017-10-01T08:46:41.630Z,997.44
2017-10-01T08:47:41.775Z,997.45
2017-10-01T08:48:41.930Z,997.46
2017-10-01T08:49:42.071Z,997.47
2017-10-01T08:50:41.093Z,997.47
2017-10-01T08:51:41.045Z,997.42
2017-10-01T08:52:41.081Z,997.48
2017-10-01T08:53:41.119Z,997.46
2017-10-01T08:54:41.152Z,997.49
2017-10-01T08:55:41.291Z,997.55
2017-10-01T08:56:41.161Z,997.60
2017-10-01T08:57:42.696Z,997.54
2017-10-01T08:58:42.334Z,997.56
2017-10-01T08:59:42.273Z,997.56
2017-10-01T09:00:42.921Z,997.57
2017-10-01T09:01:42.255Z,997.56
2017-10-01T09:02:42.286Z,997.50
2017-10-01T09:03:41.618Z,997.48
2017-10-01T09:04:42.513Z,997.48
2017-10-01T09:05:42.170Z,997.52
2017-10-01T09:06:41.908Z,997.49
2017-10-01T09:07:41.129Z,997.49
2017-10-01T09:08:41.083Z,997.46
2017-10-01T09:09:42.725Z,997.47
2017-10-01T09:10:41.283Z,997.47
2017-10-01T09:11:41.063Z,997.53
2017-10-01T09:12:41.214Z,997.52
2017-10-01T09:13:41.143Z,997.51
2017-10-01T09:14:42.306Z,997.60
2017-10-01T09:15:42.141Z,997.51
2017-10-01T09:16:41.976Z,997.57
2017-10-01T09:17:42.979Z,997.45
2017-10-01T09:18:42.395Z,997.56
2017-10-01T09:19:41.992Z,997.49
2017-10-01T09:20:41.737Z,997.60
2017-10-01T09:21:41.889Z,997.54
2017-10-01T09:22:42.031Z,997.56
2017-10-01T09:23:42.159Z,997.59
2017-10-01T09:24:42.639Z,997.52
2017-10-01T09:25:41.126Z,997.56
2017-10-01T09:26:41.175Z,997.50
2017-10-01T09:27:42.145Z,997.60
2017-10-01T09:28:41.169Z,997.57
2017-10-01T09:29:42.412Z,997.57
2017-10-01T09:30:41.240Z,997.57
2017-10-01T09:31:42.095Z,997.53
2017-10-01T09:32:42.462Z,997.60
2017-10-01T09:33:48.797Z,997.52
2017-10-01T09:34:41.215Z,997.52
2017-10-01T09:35:42.571Z,997.55
2017-10-01T09:36:42.412Z,997.56
2017-10-01T09:37:42.755Z,997.49
2017-10-01T09:38:41.815Z,997.53
2017-10-01T09:39:42.325Z,997.54
2017-10-01T09:40:42.408Z,997.49
2017-10-01T09:41:42.275Z,997.47
2017-10-01T09:42:41.212Z,997.56
2017-10-01T09:43:41.360Z,997.54
2017-10-01T09:44:41.351Z,997.56
2017-10-01T09:45:41.212Z,997.53
2017-10-01T09:46:41.255Z,997.52
2017-10-01T09:47:41.214Z,997.49
2017-10-01T09:48:42.458Z,997.49
2017-10-01T09:49:42.311Z,997.50
2017-10-01T09:50:42.079Z,997.47
2017-10-01T09:51:42.266Z,997.46
2017-10-01T09:52:42.501Z,997.48
2017-10-01T09:53:41.833Z,997.46
2017-10-01T09:54:42.370Z,997.51
2017-10-01T09:55:42.205Z,997.39
2017-10-01T09:56:41.930Z,997.45
2017-10-01T09:57:43.058Z,997.48
2017-10-01T09:58:41.319Z,997.53
2017-10-01T09:59:42.167Z,997.46
2017-10-01T10:00:42.103Z,997.49
2017-10-01T10:01:42.305Z,997.47
2017-10-01T10:02:42.290Z,997.47
2017-10-01T10:03:42.555Z,997.45
2017-10-01T10:04:42.089Z,997.47
2017-10-01T10:05:42.471Z,997.56
2017-10-01T10:06:42.236Z,997.46
2017-10-01T10:07:42.743Z,997.47
2017-10-01T10:08:42.548Z,997.49
2017-10-01T10:09:42.568Z,997.52
2017-10-01T10:10:42.572Z,997.45
2017-10-01T10:11:42.056Z,997.55
2017-10-01T10:12:42.097Z,997.51
2017-10-01T10:13:42.471Z,997.47
2017-10-01T10:14:41.323Z,997.55
2017-10-01T10:15:41.262Z,997.47
2017-10-01T10:16:42.831Z,997.55
2017-10-01T10:17:41.470Z,997.53
2017-10-01T10:18:41.352Z,997.53
2017-10-01T10:19:41.312Z,997.60
2017-10-01T10:20:42.605Z,997.51
2017-10-01T10:21:42.536Z,997.58
2017-10-01T10:22:42.720Z,997.58
2017-10-01T10:23:47.279Z,997.55
2017-10-01T10:24:41.716Z,997.59
2017-10-01T10:25:42.887Z,997.58
2017-10-01T10:26:43.034Z,997.61
2017-10-01T10:27:42.736Z,997.61
2017-10-01T10:28:42.563Z,997.58
2017-10-01T10:29:41.983Z,997.64
2017-10-01T10:30:42.520Z,997.62
2017-10-01T10:31:42.815Z,997.64
2017-10-01T10:32:42.381Z,997.61
2017-10-01T10:33:41.504Z,997.67
2017-10-01T10:34:43.072Z,997.60
2017-10-01T10:35:42.642Z,997.63
2017-10-01T10:36:41.388Z,997.64
2017-10-01T10:37:42.853Z,997.67
2017-10-01T10:38:43.538Z,997.66
2017-10-01T10:39:43.106Z,997.63
2017-10-01T10:40:41.756Z,997.57
2017-10-01T10:41:41.418Z,997.71
2017-10-01T10:42:43.082Z,997.65
2017-10-01T10:43:43.138Z,997.63
2017-10-01T10:44:43.094Z,997.64
2017-10-01T10:45:44.788Z,997.64
2017-10-01T10:46:41.694Z,997.56
2017-10-01T10:47:43.019Z,997.58
2017-10-01T10:48:42.368Z,997.63
2017-10-01T10:49:41.534Z,997.54
2017-10-01T10:50:41.592Z,997.59
2017-10-01T10:51:41.507Z,997.57
2017-10-01T10:52:42.712Z,997.56
2017-10-01T10:53:41.650Z,997.63
2017-10-01T10:54:41.622Z,997.63
2017-10-01T10:55:41.504Z,997.61
2017-10-01T10:56:42.547Z,997.62
2017-10-01T10:57:42.383Z,997.65
2017-10-01T10:58:42.547Z,997.66
2017-10-01T10:59:42.197Z,997.64
2017-10-01T11:00:42.729Z,997.66
2017-10-01T11:01:42.894Z,997.63
2017-10-01T11:02:42.164Z,997.62
2017-10-01T11:03:42.621Z,997.61
2017-10-01T11:04:42.903Z,997.57
2017-10-01T11:05:42.180Z,997.59
2017-10-01T11:06:41.488Z,997.48
2017-10-01T11:07:42.310Z,997.50
2017-10-01T11:08:41.627Z,997.52
2017-10-01T11:09:41.536Z,997.59
2017-10-01T11:10:41.548Z,997.51
2017-10-01T11:11:42.431Z,997.54
2017-10-01T11:12:42.872Z,997.53
2017-10-01T11:13:42.421Z,997.52
2017-10-01T11:14:42.770Z,997.55
2017-10-01T11:15:42.300Z,997.56
2017-10-01T11:16:43.214Z,997.58
2017-10-01T11:17:42.989Z,997.58
2017-10-01T11:18:48.431Z,997.55
2017-10-01T11:19:43.043Z,997.54
2017-10-01T11:20:42.860Z,997.52
2017-10-01T11:21:41.537Z,997.54
2017-10-01T11:22:41.591Z,997.48
2017-10-01T11:23:42.966Z,997.46
2017-10-01T11:24:41.547Z,997.49
2017-10-01T11:25:42.925Z,997.42
2017-10-01T11:26:41.751Z,997.47
2017-10-01T11:27:41.727Z,997.45
2017-10-01T11:28:43.554Z,997.43
2017-10-01T11:29:42.089Z,997.46
2017-10-01T11:30:41.965Z,997.48
2017-10-01T11:31:41.613Z,997.45
2017-10-01T11:32:43.002Z,997.41
2017-10-01T11:33:42.671Z,997.46
2017-10-01T11:34:42.623Z,997.40
2017-10-01T11:35:42.291Z,997.36
2017-10-01T11:36:42.333Z,997.38
2017-10-01T11:37:42.453Z,997.38
2017-10-01T11:38:42.549Z,997.39
2017-10-01T11:39:41.621Z,997.37
2017-10-01T11:40:45.000Z,997.38
2017-10-01T11:41:41.689Z,997.42
2017-10-01T11:42:41.774Z,997.44
2017-10-01T11:43:41.920Z,997.35
2017-10-01T11:44:41.752Z,997.43
2017-10-01T11:45:42.771Z,997.43
2017-10-01T11:46:43.609Z,997.38
2017-10-01T11:47:43.062Z,997.33
2017-10-01T11:48:43.138Z,997.42
2017-10-01T11:49:43.284Z,997.35
2017-10-01T11:50:42.721Z,997.35
2017-10-01T11:51:42.346Z,997.36
2017-10-01T11:52:42.426Z,997.33
2017-10-01T11:53:41.640Z,997.41
2017-10-01T11:54:41.635Z,997.42
2017-10-01T11:55:43.121Z,997.40
2017-10-01T11:56:43.591Z,997.44
2017-10-01T11:57:43.498Z,997.33
2017-10-01T11:58:43.156Z,997.35
2017-10-01T11:59:41.748Z,997.29
2017-10-01T12:00:41.996Z,997.29
2017-10-01T12:01:43.641Z,997.26
2017-10-01T12:02:41.869Z,997.24
2017-10-01T12:03:42.033Z,997.25
2017-10-01T12:04:44.193Z,997.29
2017-10-01T12:05:42.128Z,997.28
2017-10-01T12:06:42.894Z,997.29
2017-10-01T12:07:42.371Z,997.28
2017-10-01T12:08:42.664Z,997.28
2017-10-01T12:09:43.248Z,997.31
2017-10-01T12:11:13.098Z,997.28
2017-10-01T12:11:14.397Z,997.28
2017-10-01T12:11:42.058Z,997.31
2017-10-01T12:12:42.366Z,997.28
2017-10-01T12:13:42.998Z,997.34
2017-10-01T12:14:42.768Z,997.31
2017-10-01T12:15:42.498Z,997.37
2017-10-01T12:16:42.610Z,997.37
2017-10-01T12:17:42.761Z,997.30
2017-10-01T12:18:42.621Z,997.30
2017-10-01T12:19:42.617Z,997.30
2017-10-01T12:20:42.710Z,997.33
2017-10-01T12:21:43.810Z,997.27
2017-10-01T12:22:41.754Z,997.30
2017-10-01T12:23:43.588Z,997.26
2017-10-01T12:24:42.436Z,997.29
2017-10-01T12:25:43.127Z,997.28
2017-10-01T12:26:49.103Z,997.39
2017-10-01T12:27:41.777Z,997.37
2017-10-01T12:28:42.429Z,997.38